createdAt,value
2023-05-24T00:00:13.274Z,101164.08
2023-05-24T00:03:05.094Z,101164.48
2023-05-24T00:05:38.043Z,101161.20
2023-05-24T00:08:07.437Z,101163.70
2023-05-24T00:10:36.745Z,101164.23
2023-05-24T00:13:06.712Z,101163.70
2023-05-24T00:15:36.133Z,101163.16
2023-05-24T00:18:06.081Z,101159.95
2023-05-24T00:20:35.721Z,101159.80
2023-05-24T00:23:05.387Z,101157.60
2023-05-24T00:25:35.063Z,101155.39
2023-05-24T00:28:04.426Z,101150.85
2023-05-24T00:30:33.976Z,101147.02
2023-05-24T00:33:03.632Z,101146.97
2023-05-24T00:35:33.795Z,101145.90
2023-05-24T00:38:03.352Z,101141.27
2023-05-24T00:40:32.630Z,101138.05
2023-05-24T00:43:02.013Z,101137.48
2023-05-24T00:45:33.597Z,101134.95
2023-05-24T00:48:04.386Z,101134.06
2023-05-24T00:50:34.411Z,101132.79
2023-05-24T00:53:04.473Z,101132.09
2023-05-24T00:55:37.877Z,101129.50
2023-05-24T00:58:10.213Z,101131.30
2023-05-24T01:00:40.011Z,101132.11
2023-05-24T01:03:10.488Z,101128.63
2023-05-24T01:05:39.992Z,101129.07
2023-05-24T01:08:19.843Z,101123.08
2023-05-24T01:11:11.170Z,101120.06
2023-05-24T01:14:14.628Z,101121.60
2023-05-24T01:17:04.346Z,101129.20
2023-05-24T01:19:52.441Z,101132.27
2023-05-24T01:22:44.503Z,101133.91
2023-05-24T01:25:52.837Z,101136.40
2023-05-24T01:28:24.421Z,101133.14
2023-05-24T01:30:56.142Z,101130.47
2023-05-24T01:33:26.482Z,101132.34
2023-05-24T01:35:56.645Z,101131.98
2023-05-24T01:38:26.073Z,101130.91
2023-05-24T01:41:11.507Z,101134.04
2023-05-24T01:43:48.233Z,101135.28
2023-05-24T01:46:38.346Z,101133.38
2023-05-24T01:49:29.978Z,101136.38
2023-05-24T01:52:08.544Z,101135.23
2023-05-24T01:54:43.716Z,101133.52
2023-05-24T01:57:13.650Z,101132.64
2023-05-24T01:59:44.727Z,101131.97
2023-05-24T02:02:16.464Z,101131.55
2023-05-24T02:04:46.094Z,101130.48
2023-05-24T02:07:17.706Z,101132.23
2023-05-24T02:09:47.007Z,101130.44
2023-05-24T02:12:17.821Z,101132.09
2023-05-24T02:14:51.204Z,101132.92
2023-05-24T02:17:20.657Z,101131.39
2023-05-24T02:19:49.977Z,101129.60
2023-05-24T02:22:22.417Z,101122.91
2023-05-24T02:24:51.940Z,101125.64
2023-05-24T02:27:23.760Z,101130.59
2023-05-24T02:29:53.058Z,101132.83
2023-05-24T02:32:22.436Z,101134.70
2023-05-24T02:34:53.387Z,101139.30
2023-05-24T02:37:23.194Z,101138.64
2023-05-24T02:39:52.617Z,101142.30
2023-05-24T02:42:22.464Z,101144.51
2023-05-24T02:44:53.044Z,101139.39
2023-05-24T02:47:22.661Z,101145.34
2023-05-24T02:49:52.082Z,101142.27
2023-05-24T02:52:23.064Z,101142.33
2023-05-24T02:54:52.572Z,101145.52
2023-05-24T02:57:23.092Z,101150.34
2023-05-24T02:59:53.139Z,101154.16
2023-05-24T03:02:22.696Z,101159.27
2023-05-24T03:04:52.130Z,101161.69
2023-05-24T03:07:22.215Z,101161.31
2023-05-24T03:09:51.765Z,101166.35
2023-05-24T03:12:21.136Z,101162.77
2023-05-24T03:14:50.882Z,101166.83
2023-05-24T03:17:20.864Z,101163.50
2023-05-24T03:19:53.128Z,101166.02
2023-05-24T03:22:22.545Z,101167.36
2023-05-24T03:24:52.271Z,101161.95
2023-05-24T03:27:22.053Z,101166.41
2023-05-24T03:29:51.486Z,101166.59
2023-05-24T03:32:22.326Z,101170.30
2023-05-24T03:34:51.871Z,101176.73
2023-05-24T03:37:21.533Z,101173.23
2023-05-24T03:39:51.457Z,101175.23
2023-05-24T03:42:39.793Z,101174.41
2023-05-24T03:45:10.230Z,101172.63
2023-05-24T03:47:40.936Z,101179.55
2023-05-24T03:50:11.157Z,101179.56
2023-05-24T03:52:43.047Z,101181.88
2023-05-24T03:55:12.503Z,101183.23
2023-05-24T03:57:43.080Z,101187.04
2023-05-24T04:00:13.483Z,101186.03
2023-05-24T04:02:48.857Z,101189.02
2023-05-24T04:05:18.460Z,101191.48
2023-05-24T04:07:49.086Z,101191.94
2023-05-24T04:10:18.741Z,101190.47
2023-05-24T04:12:48.185Z,101190.92
2023-05-24T04:15:17.911Z,101196.23
2023-05-24T04:17:47.798Z,101196.65
2023-05-24T04:20:18.810Z,101195.44
2023-05-24T04:22:48.258Z,101196.79
2023-05-24T04:25:18.020Z,101197.23
2023-05-24T04:27:49.020Z,101199.09
2023-05-24T04:30:18.756Z,101197.11
2023-05-24T04:32:48.817Z,101201.98
2023-05-24T04:35:18.724Z,101201.14
2023-05-24T04:37:49.910Z,101204.55
2023-05-24T04:40:23.309Z,101206.64
2023-05-24T04:42:52.693Z,101207.73
2023-05-24T04:45:22.040Z,101209.41
2023-05-24T04:47:51.491Z,101216.45
2023-05-24T04:50:20.957Z,101213.67
2023-05-24T04:52:50.537Z,101213.43
2023-05-24T04:55:20.150Z,101215.30
2023-05-24T04:57:49.660Z,101211.27
2023-05-24T05:00:20.030Z,101211.92
2023-05-24T05:02:49.488Z,101212.89
2023-05-24T05:05:21.351Z,101213.08
2023-05-24T05:07:50.751Z,101211.87
2023-05-24T05:10:22.395Z,101212.58
2023-05-24T05:12:53.359Z,101214.86
2023-05-24T05:15:24.595Z,101217.29
2023-05-24T05:17:55.410Z,101219.36
2023-05-24T05:20:26.552Z,101220.22
2023-05-24T05:22:56.412Z,101219.03
2023-05-24T05:25:25.882Z,101218.23
2023-05-24T05:27:55.405Z,101221.34
2023-05-24T05:30:24.893Z,101222.88
2023-05-24T05:32:54.507Z,101221.36
2023-05-24T05:35:25.348Z,101223.54
2023-05-24T05:37:55.594Z,101224.80
2023-05-24T05:40:25.135Z,101230.60
2023-05-24T05:42:56.993Z,101231.98
2023-05-24T05:45:26.690Z,101239.76
2023-05-24T05:47:58.572Z,101239.42
2023-05-24T05:50:28.272Z,101239.36
2023-05-24T05:52:58.469Z,101240.62
2023-05-24T05:55:29.274Z,101242.48
2023-05-24T05:58:06.213Z,101245.23
2023-05-24T06:00:38.325Z,101242.57
2023-05-24T06:03:07.850Z,101244.59
2023-05-24T06:05:37.372Z,101246.91
2023-05-24T06:08:06.872Z,101251.48
2023-05-24T06:10:36.986Z,101253.13
2023-05-24T06:13:12.741Z,101253.17
2023-05-24T06:15:42.342Z,101254.32
2023-05-24T06:18:13.828Z,101254.46
2023-05-24T06:20:45.784Z,101256.92
2023-05-24T06:29:44.017Z,101257.24
2023-05-24T06:32:29.278Z,101255.80
2023-05-24T06:47:21.009Z,101258.42
2023-05-24T06:53:56.571Z,101252.30
2023-05-24T06:58:06.242Z,101252.60
2023-05-24T07:02:10.542Z,101249.34
2023-05-24T07:05:05.831Z,101248.55
2023-05-24T07:07:57.783Z,101245.90
2023-05-24T07:11:04.400Z,101247.77
2023-05-24T07:13:54.257Z,101248.95
2023-05-24T07:16:34.885Z,101248.04
2023-05-24T07:19:31.544Z,101250.00
2023-05-24T07:22:30.888Z,101251.17
2023-05-24T07:25:10.244Z,101247.92
2023-05-24T07:27:42.995Z,101249.41
2023-05-24T07:30:23.798Z,101242.70
2023-05-24T07:33:00.533Z,101242.04
2023-05-24T07:35:30.680Z,101247.10
2023-05-24T07:38:05.590Z,101246.41
2023-05-24T07:40:36.171Z,101249.48
2023-05-24T07:43:06.528Z,101248.72
2023-05-24T07:45:35.544Z,101250.48
2023-05-24T07:48:08.375Z,101254.38
2023-05-24T07:51:00.931Z,101253.30
2023-05-24T07:53:39.797Z,101252.75
2023-05-24T07:59:33.747Z,101256.97
2023-05-24T08:02:07.910Z,101252.95
2023-05-24T08:04:37.812Z,101252.61
2023-05-24T08:07:10.978Z,101256.86
2023-05-24T08:09:45.467Z,101258.13
2023-05-24T08:12:30.912Z,101251.92
2023-05-24T08:15:00.034Z,101259.69
2023-05-24T08:17:39.283Z,101257.13
2023-05-24T08:20:25.057Z,101258.89
2023-05-24T08:22:53.777Z,101257.61
2023-05-24T08:25:22.093Z,101256.84
2023-05-24T08:27:51.669Z,101258.53
2023-05-24T08:30:20.182Z,101256.55
2023-05-24T08:32:48.743Z,101257.89
2023-05-24T08:35:20.769Z,101258.80
2023-05-24T08:37:53.010Z,101257.91
2023-05-24T08:40:24.729Z,101258.77
2023-05-24T08:42:54.088Z,101255.73
2023-05-24T08:45:25.972Z,101259.79
2023-05-24T08:47:56.423Z,101262.92
2023-05-24T08:50:25.794Z,101263.30
2023-05-24T08:52:58.438Z,101267.60
2023-05-24T08:55:31.674Z,101261.69
2023-05-24T08:58:01.538Z,101262.86
2023-05-24T09:00:30.943Z,101259.63
2023-05-24T09:03:02.248Z,101259.27
2023-05-24T09:05:31.853Z,101262.02
2023-05-24T09:08:01.651Z,101263.98
2023-05-24T09:10:45.031Z,101264.38
2023-05-24T09:13:24.925Z,101264.80
2023-05-24T09:15:54.474Z,101261.52
2023-05-24T09:18:24.354Z,101257.11
2023-05-24T09:20:53.687Z,101255.29
2023-05-24T09:23:24.091Z,101250.93
2023-05-24T09:25:52.646Z,101252.31
2023-05-24T09:28:21.355Z,101253.63
2023-05-24T09:31:01.102Z,101245.02
2023-05-24T09:33:33.087Z,101249.55
2023-05-24T09:36:04.243Z,101245.67
2023-05-24T09:38:35.472Z,101245.98
2023-05-24T09:41:07.096Z,101244.02
2023-05-24T09:43:47.906Z,101242.30
2023-05-24T09:46:19.728Z,101235.52
2023-05-24T09:49:07.458Z,101226.54
2023-05-24T09:51:41.587Z,101225.52
2023-05-24T09:54:09.888Z,101225.48
2023-05-24T09:56:39.679Z,101223.48
2023-05-24T09:59:09.372Z,101222.55
2023-05-24T10:01:38.064Z,101220.59
2023-05-24T10:04:09.924Z,101217.73
2023-05-24T10:06:42.541Z,101207.96
2023-05-24T10:09:11.283Z,101209.55
2023-05-24T10:11:41.300Z,101210.16
2023-05-24T10:14:14.595Z,101208.16
2023-05-24T10:16:48.493Z,101204.81
2023-05-24T10:19:18.192Z,101202.50
2023-05-24T10:21:47.300Z,101206.36
2023-05-24T10:24:19.853Z,101199.34
2023-05-24T10:26:49.584Z,101202.75
2023-05-24T10:29:34.520Z,101203.15
2023-05-24T10:32:04.622Z,101201.06
2023-05-24T10:34:32.884Z,101199.70
2023-05-24T10:37:01.385Z,101195.90
2023-05-24T10:39:33.707Z,101194.31
2023-05-24T10:42:09.344Z,101191.67
2023-05-24T10:44:38.554Z,101189.33
2023-05-24T10:47:18.466Z,101184.27
2023-05-24T10:49:50.803Z,101177.20
2023-05-24T10:52:20.255Z,101172.33
2023-05-24T10:55:09.868Z,101172.09
2023-05-24T10:57:39.723Z,101170.02
2023-05-24T11:00:33.349Z,101167.40
2023-05-24T11:03:08.772Z,101164.15
2023-05-24T11:05:46.810Z,101159.48
2023-05-24T11:08:25.177Z,101156.25
2023-05-24T11:11:29.406Z,101154.83
2023-05-24T11:14:03.488Z,101152.57
2023-05-24T11:16:38.776Z,101155.83
2023-05-24T11:19:28.901Z,101160.77
2023-05-24T11:22:00.883Z,101153.91
2023-05-24T11:24:53.234Z,101154.13
2023-05-24T11:27:22.580Z,101149.79
2023-05-24T11:29:56.630Z,101154.63
2023-05-24T11:32:24.858Z,101154.54
2023-05-24T11:34:53.404Z,101154.16
2023-05-24T11:37:38.532Z,101153.23
2023-05-24T11:40:16.011Z,101152.43
2023-05-24T11:42:44.474Z,101148.65
2023-05-24T11:45:15.070Z,101147.79
2023-05-24T11:47:45.347Z,101143.69
2023-05-24T11:50:16.523Z,101139.50
2023-05-24T11:52:45.990Z,101133.65
2023-05-24T11:55:24.498Z,101129.47
2023-05-24T11:58:01.033Z,101127.21
2023-05-24T12:00:35.976Z,101124.81
2023-05-24T12:03:09.126Z,101122.05
2023-05-24T12:05:38.276Z,101116.86
2023-05-24T12:08:10.996Z,101112.19
2023-05-24T12:10:43.616Z,101112.14
2023-05-24T12:13:27.654Z,101114.61
2023-05-24T12:15:57.784Z,101109.68
2023-05-24T12:18:27.852Z,101113.63
2023-05-24T12:20:56.219Z,101109.66
2023-05-24T12:23:28.904Z,101111.23
2023-05-24T12:26:02.297Z,101110.79
2023-05-24T12:28:38.533Z,101109.40
2023-05-24T12:31:07.286Z,101107.26
2023-05-24T12:33:36.857Z,101106.42
2023-05-24T12:36:05.126Z,101105.69
2023-05-24T12:38:33.614Z,101106.92
2023-05-24T12:43:33.308Z,101107.34
2023-05-24T12:46:02.418Z,101101.19
2023-05-24T12:48:30.948Z,101096.78
2023-05-24T12:50:59.275Z,101091.93
2023-05-24T12:53:27.801Z,101088.19
2023-05-24T12:55:59.849Z,101085.55
2023-05-24T12:58:28.637Z,101093.59
2023-05-24T13:00:58.681Z,101098.08
2023-05-24T13:03:31.103Z,101099.86
2023-05-24T13:06:01.022Z,101098.33
2023-05-24T13:08:34.073Z,101096.70
2023-05-24T13:11:02.281Z,101095.48
2023-05-24T13:13:32.036Z,101092.48
2023-05-24T13:16:00.957Z,101096.30
2023-05-24T13:18:31.371Z,101093.77
2023-05-24T13:21:00.548Z,101089.50
2023-05-24T13:23:31.758Z,101096.57
2023-05-24T13:26:01.076Z,101097.03
2023-05-24T13:28:34.397Z,101098.02
2023-05-24T13:31:03.245Z,101101.43
2023-05-24T13:33:35.011Z,101105.71
2023-05-24T13:36:03.735Z,101114.06
2023-05-24T13:38:32.337Z,101117.15
2023-05-24T13:41:00.524Z,101117.67
2023-05-24T13:43:32.066Z,101120.80
2023-05-24T13:46:00.622Z,101121.16
2023-05-24T13:48:29.448Z,101115.98
2023-05-24T13:50:58.294Z,101114.21
2023-05-24T13:53:27.754Z,101118.95
2023-05-24T13:55:56.133Z,101120.29
2023-05-24T13:58:24.465Z,101113.58
2023-05-24T14:00:53.013Z,101109.39
2023-05-24T14:03:21.366Z,101112.77
2023-05-24T14:05:49.511Z,101116.10
2023-05-24T14:08:17.956Z,101119.70
2023-05-24T14:10:49.277Z,101115.84
2023-05-24T14:13:43.096Z,101112.01
2023-05-24T14:16:08.786Z,101112.54
2023-05-24T14:18:38.007Z,101108.27
2023-05-24T14:21:07.692Z,101111.89
2023-05-24T14:23:40.632Z,101111.92
2023-05-24T14:26:09.336Z,101118.13
2023-05-24T14:28:42.605Z,101130.01
2023-05-24T14:31:11.540Z,101128.34
2023-05-24T14:33:39.891Z,101127.52
2023-05-24T14:36:10.190Z,101124.85
2023-05-24T14:38:38.556Z,101120.77
2023-05-24T14:41:08.643Z,101118.94
2023-05-24T14:43:38.453Z,101118.95
2023-05-24T14:46:09.468Z,101121.02
2023-05-24T14:48:40.963Z,101122.78
2023-05-24T14:51:09.311Z,101125.41
2023-05-24T14:53:37.777Z,101123.25
2023-05-24T14:56:08.591Z,101117.69
2023-05-24T14:58:36.892Z,101112.21
2023-05-24T15:01:06.248Z,101109.31
2023-05-24T15:03:35.569Z,101107.58
2023-05-24T15:06:04.299Z,101107.10
2023-05-24T15:08:34.391Z,101109.92
2023-05-24T15:11:05.971Z,101109.13
2023-05-24T15:13:34.555Z,101107.36
2023-05-24T15:16:02.767Z,101104.80
2023-05-24T15:18:31.811Z,101106.05
2023-05-24T15:21:00.938Z,101105.19
2023-05-24T15:23:29.464Z,101103.24
2023-05-24T15:25:57.791Z,101101.27
2023-05-24T15:28:26.756Z,101100.70
2023-05-24T15:30:56.424Z,101103.42
2023-05-24T15:33:26.432Z,101105.94
2023-05-24T15:36:08.498Z,101106.66
2023-05-24T15:38:38.272Z,101110.79
2023-05-24T15:41:09.213Z,101107.96
2023-05-24T15:43:37.733Z,101110.19
2023-05-24T15:46:11.714Z,101109.33
2023-05-24T15:49:08.070Z,101108.67
2023-05-24T15:52:04.408Z,101114.66
2023-05-24T15:54:34.012Z,101113.05
2023-05-24T15:57:06.098Z,101115.74
2023-05-24T15:59:36.335Z,101116.15
2023-05-24T16:02:05.955Z,101119.07
2023-05-24T16:04:34.229Z,101124.66
2023-05-24T16:07:02.890Z,101131.86
2023-05-24T16:09:31.170Z,101133.04
2023-05-24T16:14:29.341Z,101132.16
2023-05-24T16:16:59.535Z,101131.13
2023-05-24T16:19:28.524Z,101129.27
2023-05-24T16:21:56.820Z,101128.62
2023-05-24T16:24:25.246Z,101127.48
2023-05-24T16:26:53.534Z,101129.73
2023-05-24T16:29:21.669Z,101128.52
2023-05-24T16:31:50.497Z,101130.66
2023-05-24T16:34:18.801Z,101133.71
2023-05-24T16:36:46.885Z,101134.49
2023-05-24T16:39:15.085Z,101138.86
2023-05-24T16:41:43.432Z,101135.22
2023-05-24T16:44:16.891Z,101130.04
2023-05-24T16:46:45.990Z,101129.45
2023-05-24T16:49:16.191Z,101130.33
2023-05-24T16:51:44.414Z,101133.77
2023-05-24T16:54:12.462Z,101135.80
2023-05-24T16:56:40.882Z,101135.05
2023-05-24T16:59:09.254Z,101136.20
2023-05-24T17:01:37.901Z,101138.23
2023-05-24T17:04:05.955Z,101138.27
2023-05-24T17:06:34.052Z,101140.08
2023-05-24T17:09:02.388Z,101144.60
2023-05-24T17:11:30.423Z,101144.94
2023-05-24T17:14:00.937Z,101147.30
2023-05-24T17:16:29.347Z,101148.13
2023-05-24T17:18:57.930Z,101147.27
2023-05-24T17:21:29.299Z,101148.77
2023-05-24T17:23:57.493Z,101157.14
2023-05-24T17:26:26.536Z,101157.92
2023-05-24T17:28:54.842Z,101160.13
2023-05-24T17:31:23.155Z,101162.90
2023-05-24T17:33:51.285Z,101164.58
2023-05-24T17:36:19.632Z,101165.05
2023-05-24T17:38:47.640Z,101168.45
2023-05-24T17:41:15.728Z,101170.68
2023-05-24T17:43:43.870Z,101176.10
2023-05-24T17:46:12.912Z,101175.77
2023-05-24T17:48:42.271Z,101176.16
2023-05-24T17:51:10.501Z,101179.46
2023-05-24T17:53:42.553Z,101183.23
2023-05-24T17:56:10.971Z,101180.77
2023-05-24T17:58:39.300Z,101182.61
2023-05-24T18:01:10.923Z,101183.28
2023-05-24T18:03:40.356Z,101186.80
2023-05-24T18:06:09.252Z,101185.98
2023-05-24T18:08:42.406Z,101184.86
2023-05-24T18:11:12.532Z,101188.30
2023-05-24T18:13:42.495Z,101190.86
2023-05-24T18:16:11.775Z,101191.73
2023-05-24T18:18:41.026Z,101192.55
2023-05-24T18:21:09.989Z,101199.19
2023-05-24T18:23:38.574Z,101202.73
2023-05-24T18:26:11.554Z,101204.02
2023-05-24T18:28:41.286Z,101206.55
2023-05-24T18:31:14.141Z,101210.49
2023-05-24T18:33:42.571Z,101215.92
2023-05-24T18:36:11.975Z,101218.62
2023-05-24T18:38:40.142Z,101221.60
2023-05-24T18:41:09.434Z,101222.02
2023-05-24T18:43:37.676Z,101223.09
2023-05-24T18:46:05.861Z,101227.00
2023-05-24T18:48:34.008Z,101230.86
2023-05-24T18:51:02.447Z,101237.11
2023-05-24T18:53:30.547Z,101235.48
2023-05-24T18:55:58.817Z,101237.20
2023-05-24T18:58:26.980Z,101237.28
2023-05-24T19:00:55.526Z,101238.12
2023-05-24T19:03:24.534Z,101239.29
2023-05-24T19:05:52.732Z,101243.00
2023-05-24T19:08:21.721Z,101246.05
2023-05-24T19:10:51.198Z,101251.79
2023-05-24T19:13:19.471Z,101254.55
2023-05-24T19:15:47.533Z,101253.52
2023-05-24T19:18:15.960Z,101257.27
2023-05-24T19:20:44.463Z,101256.52
2023-05-24T19:23:12.781Z,101257.02
2023-05-24T19:25:43.518Z,101259.08
2023-05-24T19:28:11.747Z,101261.48
2023-05-24T19:30:39.653Z,101266.53
2023-05-24T19:33:08.036Z,101267.48
2023-05-24T19:35:36.355Z,101269.80
2023-05-24T19:38:04.542Z,101269.90
2023-05-24T19:40:33.407Z,101268.91
2023-05-24T19:43:02.828Z,101266.21
2023-05-24T19:45:31.152Z,101263.30
2023-05-24T19:47:59.308Z,101262.21
2023-05-24T19:50:29.119Z,101261.80
2023-05-24T19:52:59.235Z,101259.84
2023-05-24T19:55:27.405Z,101258.89
2023-05-24T19:57:55.523Z,101254.44
2023-05-24T20:00:23.916Z,101248.42
2023-05-24T20:02:51.997Z,101245.52
2023-05-24T20:05:20.433Z,101243.29
2023-05-24T20:07:49.636Z,101245.14
2023-05-24T20:10:17.981Z,101245.88
2023-05-24T20:12:46.261Z,101245.44
2023-05-24T20:15:17.641Z,101244.32
2023-05-24T20:17:46.416Z,101247.00
2023-05-24T20:20:14.947Z,101249.55
2023-05-24T20:22:43.903Z,101251.08
2023-05-24T20:25:12.309Z,101248.17
2023-05-24T20:27:41.869Z,101250.19
2023-05-24T20:30:11.595Z,101250.17
2023-05-24T20:32:40.071Z,101249.23
2023-05-24T20:35:09.018Z,101249.36
2023-05-24T20:37:37.252Z,101251.36
2023-05-24T20:40:06.802Z,101254.09
2023-05-24T20:42:35.076Z,101257.19
2023-05-24T20:45:03.589Z,101259.16
2023-05-24T20:47:31.852Z,101261.50
2023-05-24T20:49:59.984Z,101262.89
2023-05-24T20:52:28.149Z,101264.98
2023-05-24T20:54:56.139Z,101267.60
2023-05-24T20:57:24.467Z,101265.96
2023-05-24T20:59:52.748Z,101264.13
2023-05-24T21:02:20.982Z,101268.55
2023-05-24T21:04:49.163Z,101275.83
2023-05-24T21:07:17.415Z,101274.00
2023-05-24T21:09:45.634Z,101279.25
2023-05-24T21:12:13.904Z,101279.69
2023-05-24T21:14:43.564Z,101280.44
2023-05-24T21:17:12.155Z,101285.79
2023-05-24T21:19:41.121Z,101284.48
2023-05-24T21:22:11.033Z,101284.00
2023-05-24T21:24:39.971Z,101285.61
2023-05-24T21:27:10.493Z,101279.29
2023-05-24T21:29:40.685Z,101282.57
2023-05-24T21:32:08.945Z,101277.19
2023-05-24T21:34:37.350Z,101277.00
2023-05-24T21:37:05.610Z,101274.73
2023-05-24T21:39:34.552Z,101272.84
2023-05-24T21:42:03.138Z,101276.71
2023-05-24T21:44:31.705Z,101275.95
2023-05-24T21:47:00.109Z,101274.36
2023-05-24T21:49:28.399Z,101272.13
2023-05-24T21:51:56.661Z,101273.17
2023-05-24T21:54:24.990Z,101270.66
2023-05-24T21:56:53.068Z,101271.41
2023-05-24T21:59:22.605Z,101273.76
2023-05-24T22:01:51.536Z,101272.27
2023-05-24T22:04:21.931Z,101271.15
2023-05-24T22:06:50.716Z,101271.62
2023-05-24T22:09:18.724Z,101271.94
2023-05-24T22:11:46.985Z,101269.44
2023-05-24T22:14:15.492Z,101269.48
2023-05-24T22:16:43.870Z,101266.77
2023-05-24T22:19:16.500Z,101268.07
2023-05-24T22:21:49.707Z,101264.66
2023-05-24T22:24:18.208Z,101272.36
2023-05-24T22:26:46.589Z,101271.61
2023-05-24T22:29:14.815Z,101268.29
2023-05-24T22:31:43.383Z,101268.42
2023-05-24T22:34:11.714Z,101269.97
2023-05-24T22:36:40.349Z,101270.27
2023-05-24T22:39:08.714Z,101275.96
2023-05-24T22:41:36.763Z,101272.03
2023-05-24T22:44:06.160Z,101273.26
2023-05-24T22:46:34.426Z,101275.85
2023-05-24T22:49:05.186Z,101276.54
2023-05-24T22:51:33.230Z,101275.81
2023-05-24T22:54:01.389Z,101276.45
2023-05-24T22:56:31.624Z,101273.95
2023-05-24T22:59:00.878Z,101271.86
2023-05-24T23:01:29.078Z,101272.98
2023-05-24T23:04:11.538Z,101270.55
2023-05-24T23:06:46.815Z,101273.85
2023-05-24T23:09:17.052Z,101269.68
2023-05-24T23:11:45.585Z,101270.55
2023-05-24T23:14:16.416Z,101269.27
2023-05-24T23:16:44.568Z,101273.77
2023-05-24T23:19:17.539Z,101273.92
2023-05-24T23:21:46.045Z,101276.69
2023-05-24T23:24:15.372Z,101277.77
2023-05-24T23:26:43.791Z,101282.23
2023-05-24T23:29:11.978Z,101279.38
2023-05-24T23:31:40.453Z,101276.92
2023-05-24T23:34:08.934Z,101274.74
2023-05-24T23:36:37.843Z,101271.23
2023-05-24T23:39:06.256Z,101268.99
2023-05-24T23:41:34.659Z,101268.68
2023-05-24T23:44:03.326Z,101268.98
2023-05-24T23:46:32.643Z,101267.02
2023-05-24T23:49:01.382Z,101270.44
2023-05-24T23:51:33.112Z,101273.67
2023-05-24T23:54:02.394Z,101273.58
2023-05-24T23:56:31.497Z,101274.67
2023-05-24T23:58:59.801Z,101270.02
